createdAt,value
2022-08-04T00:00:28.037Z,10.15
2022-08-04T00:03:26.630Z,7.97
2022-08-04T00:06:37.330Z,9.75
2022-08-04T00:09:57.629Z,12.98
2022-08-04T00:12:42.010Z,12.10
2022-08-04T00:15:26.631Z,15.75
2022-08-04T00:18:15.399Z,13.00
2022-08-04T00:20:52.367Z,9.95
2022-08-04T00:24:12.131Z,10.73
2022-08-04T00:26:51.773Z,14.23
2022-08-04T00:29:35.084Z,15.57
2022-08-04T00:32:34.574Z,13.65
2022-08-04T00:35:15.087Z,13.77
2022-08-04T00:37:50.458Z,15.75
2022-08-04T00:40:48.988Z,15.07
2022-08-04T00:44:03.625Z,14.10
2022-08-04T00:47:01.349Z,13.35
2022-08-04T00:50:05.820Z,11.13
2022-08-04T00:53:14.404Z,10.15
2022-08-04T00:56:18.281Z,9.35
2022-08-04T00:59:06.987Z,10.88
2022-08-04T01:02:04.487Z,9.88
2022-08-04T01:04:54.753Z,13.05
2022-08-04T01:08:01.391Z,13.45
2022-08-04T01:11:15.030Z,14.27
2022-08-04T01:14:02.617Z,10.95
2022-08-04T01:17:02.072Z,13.10
2022-08-04T01:20:13.614Z,13.10
2022-08-04T01:22:49.422Z,11.63
2022-08-04T01:25:58.313Z,10.35
2022-08-04T01:28:36.045Z,12.40
2022-08-04T01:31:35.221Z,12.43
2022-08-04T01:34:14.707Z,12.73
2022-08-04T01:37:30.423Z,12.38
2022-08-04T01:40:10.568Z,12.88
2022-08-04T01:42:50.412Z,16.45
2022-08-04T01:45:28.399Z,13.43
2022-08-04T01:48:10.956Z,13.48
2022-08-04T01:50:45.531Z,12.55
2022-08-04T01:53:39.121Z,13.02
2022-08-04T01:56:25.778Z,13.13
2022-08-04T01:59:04.091Z,11.60
2022-08-04T02:01:39.213Z,12.60
2022-08-04T02:04:25.241Z,11.43
2022-08-04T02:07:26.099Z,12.55
2022-08-04T02:10:15.198Z,13.90
2022-08-04T02:13:10.892Z,13.27
2022-08-04T02:16:05.133Z,11.88
2022-08-04T02:19:18.442Z,10.95
2022-08-04T02:21:59.929Z,11.20
2022-08-04T02:24:48.732Z,12.90
2022-08-04T02:28:00.003Z,10.57
2022-08-04T02:30:39.244Z,10.60
2022-08-04T02:33:28.760Z,10.57
2022-08-04T02:36:09.365Z,10.07
2022-08-04T02:39:01.645Z,10.35
2022-08-04T02:41:43.718Z,9.95
2022-08-04T02:44:23.277Z,10.32
2022-08-04T02:47:09.369Z,10.63
2022-08-04T02:49:49.321Z,15.52
2022-08-04T02:52:38.441Z,9.38
2022-08-04T02:55:32.123Z,11.48
2022-08-04T02:58:21.407Z,11.57
2022-08-04T03:00:59.839Z,11.85
2022-08-04T03:04:04.080Z,12.15
2022-08-04T03:07:14.262Z,14.48
2022-08-04T03:10:48.362Z,13.85
2022-08-04T03:13:53.575Z,11.82
2022-08-04T03:17:03.080Z,12.68
2022-08-04T03:20:01.069Z,12.38
2022-08-04T03:23:14.666Z,12.35
2022-08-04T03:26:15.345Z,12.77
2022-08-04T03:29:36.681Z,14.05
2022-08-04T03:32:44.786Z,11.85
2022-08-04T03:35:36.389Z,15.75
2022-08-04T03:41:55.069Z,16.35
2022-08-04T03:44:57.581Z,11.70
2022-08-04T03:48:23.795Z,13.95
2022-08-04T03:51:35.503Z,12.82
2022-08-04T03:54:55.103Z,13.48
2022-08-04T03:57:43.814Z,17.15
2022-08-04T04:00:53.438Z,12.88
2022-08-04T04:03:44.863Z,12.02
2022-08-04T04:07:00.914Z,12.43
2022-08-04T04:10:28.759Z,13.43
2022-08-04T04:13:19.126Z,13.52
2022-08-04T04:16:33.237Z,13.35
2022-08-04T04:19:35.781Z,12.23
2022-08-04T04:22:38.289Z,12.35
2022-08-04T04:25:25.034Z,12.73
2022-08-04T04:28:48.295Z,14.75
2022-08-04T04:32:15.189Z,13.68
2022-08-04T04:35:12.369Z,15.10
2022-08-04T04:38:17.409Z,15.27
2022-08-04T04:41:28.308Z,13.15
2022-08-04T04:44:30.436Z,13.63
2022-08-04T04:48:07.281Z,12.95
2022-08-04T04:50:56.609Z,18.45
2022-08-04T04:54:05.026Z,15.55
2022-08-04T04:56:43.629Z,13.70
2022-08-04T04:59:36.391Z,14.13
2022-08-04T05:02:42.977Z,14.82
2022-08-04T05:05:26.754Z,17.13
2022-08-04T05:08:44.231Z,12.77
2022-08-04T05:11:39.608Z,12.65
2022-08-04T05:14:38.861Z,12.85
2022-08-04T05:17:36.468Z,9.90
2022-08-04T05:20:40.526Z,10.60
2022-08-04T05:23:24.392Z,9.88
2022-08-04T05:26:11.781Z,10.63
2022-08-04T05:28:52.503Z,12.35
2022-08-04T05:31:40.689Z,12.05
2022-08-04T05:34:26.075Z,10.73
2022-08-04T05:37:20.761Z,7.93
2022-08-04T05:40:03.377Z,9.52
2022-08-04T05:42:42.827Z,8.05
2022-08-04T05:45:24.257Z,9.70
2022-08-04T05:48:01.392Z,10.75
2022-08-04T05:50:43.017Z,9.35
2022-08-04T05:53:24.639Z,5.90
2022-08-04T05:56:05.677Z,5.60
2022-08-04T05:58:50.510Z,5.63
2022-08-04T06:01:30.423Z,8.50
2022-08-04T06:04:13.429Z,6.70
2022-08-04T06:07:04.495Z,4.55
2022-08-04T06:09:35.604Z,13.23
2022-08-04T06:12:19.488Z,12.07
2022-08-04T06:14:59.474Z,7.78
2022-08-04T06:18:35.647Z,5.18
2022-08-04T06:21:16.417Z,5.10
2022-08-04T06:24:12.151Z,4.93
2022-08-04T06:26:50.653Z,5.78
2022-08-04T06:29:41.308Z,12.02
2022-08-04T06:32:47.815Z,10.45
2022-08-04T06:35:32.985Z,5.60
2022-08-04T06:38:18.238Z,8.30
2022-08-04T06:40:58.351Z,5.00
2022-08-04T06:43:43.054Z,3.97
2022-08-04T06:46:22.187Z,4.57
2022-08-04T06:49:06.653Z,4.18
2022-08-04T06:51:49.637Z,7.32
2022-08-04T06:54:27.577Z,2.22
2022-08-04T06:57:08.500Z,4.50
2022-08-04T06:59:49.381Z,4.93
2022-08-04T07:02:30.137Z,6.03
2022-08-04T07:05:21.401Z,3.30
2022-08-04T07:07:58.452Z,8.07
2022-08-04T07:10:40.113Z,3.05
2022-08-04T07:13:27.070Z,11.05
2022-08-04T07:18:39.679Z,2.00
2022-08-04T07:21:27.391Z,3.65
2022-08-04T07:24:13.029Z,4.68
2022-08-04T07:26:52.418Z,2.67
2022-08-04T07:29:29.555Z,6.22
2022-08-04T07:32:14.411Z,4.25
2022-08-04T07:34:52.256Z,5.00
2022-08-04T07:37:38.943Z,5.90
2022-08-04T07:40:31.826Z,7.15
2022-08-04T07:43:10.855Z,1.65
2022-08-04T07:45:47.364Z,2.10
2022-08-04T07:48:31.419Z,2.20
2022-08-04T07:51:07.447Z,6.07
2022-08-04T07:53:55.011Z,3.65
2022-08-04T07:56:31.301Z,3.67
2022-08-04T07:59:13.243Z,2.03
2022-08-04T08:01:45.143Z,3.20
2022-08-04T08:04:18.755Z,2.88
2022-08-04T08:06:49.408Z,7.90
2022-08-04T08:09:25.321Z,5.93
2022-08-04T08:12:38.286Z,2.33
2022-08-04T08:14:56.321Z,7.32
2022-08-04T08:17:32.557Z,3.20
2022-08-04T08:20:29.921Z,3.08
2022-08-04T08:23:02.563Z,3.35
2022-08-04T08:25:41.213Z,6.82
2022-08-04T08:28:17.592Z,1.70
2022-08-04T08:30:59.452Z,1.85
2022-08-04T08:33:39.010Z,4.63
2022-08-04T08:37:03.834Z,2.55
2022-08-04T08:40:05.050Z,4.22
2022-08-04T08:44:03.804Z,3.00
2022-08-04T08:46:48.920Z,8.52
2022-08-04T08:50:03.061Z,3.17
2022-08-04T08:53:02.760Z,3.30
2022-08-04T08:56:18.144Z,1.75
2022-08-04T08:59:38.269Z,3.25
2022-08-04T09:02:49.759Z,7.88
2022-08-04T09:05:56.947Z,2.03
2022-08-04T09:08:55.679Z,6.07
2022-08-04T09:11:33.104Z,4.05
2022-08-04T09:14:48.614Z,5.22
2022-08-04T09:17:52.422Z,2.47
2022-08-04T09:21:17.235Z,2.72
2022-08-04T09:24:03.439Z,3.90
2022-08-04T09:27:27.760Z,3.40
2022-08-04T09:30:18.855Z,4.20
2022-08-04T09:33:45.405Z,3.45
2022-08-04T09:36:31.867Z,2.95
2022-08-04T09:39:36.205Z,2.28
2022-08-04T09:42:30.273Z,2.72
2022-08-04T09:45:39.177Z,1.75
2022-08-04T09:48:45.235Z,2.05
2022-08-04T09:51:58.768Z,1.92
2022-08-04T09:54:44.487Z,2.53
2022-08-04T09:57:41.382Z,2.42
2022-08-04T10:00:23.719Z,2.35
2022-08-04T10:03:23.509Z,2.85
2022-08-04T10:06:36.077Z,2.33
2022-08-04T10:09:51.035Z,5.25
2022-08-04T10:12:51.396Z,3.60
2022-08-04T10:15:41.692Z,7.97
2022-08-04T10:18:14.525Z,4.95
2022-08-04T10:21:19.616Z,3.90
2022-08-04T10:24:30.293Z,1.58
2022-08-04T10:27:31.423Z,4.60
2022-08-04T10:30:16.949Z,2.17
2022-08-04T10:33:10.926Z,3.45
2022-08-04T10:36:31.272Z,4.32
2022-08-04T10:39:42.831Z,1.35
2022-08-04T10:42:30.394Z,2.15
2022-08-04T10:45:18.399Z,4.10
2022-08-04T10:48:14.087Z,1.70
2022-08-04T10:50:58.469Z,1.45
2022-08-04T10:53:38.452Z,4.53
2022-08-04T10:56:22.589Z,3.42
2022-08-04T10:59:00.810Z,6.00
2022-08-04T11:01:50.543Z,6.03
2022-08-04T11:05:16.424Z,3.90
2022-08-04T11:07:52.502Z,1.98
2022-08-04T11:10:33.442Z,1.63
2022-08-04T11:13:21.869Z,5.03
2022-08-04T11:16:15.393Z,3.30
2022-08-04T11:19:23.491Z,4.28
2022-08-04T11:22:48.658Z,7.00
2022-08-04T11:25:35.991Z,4.38
2022-08-04T11:28:23.454Z,3.90
2022-08-04T11:31:18.499Z,9.50
2022-08-04T11:33:54.372Z,12.32
2022-08-04T11:36:33.814Z,2.22
2022-08-04T11:39:19.515Z,8.85
2022-08-04T11:42:07.796Z,4.03
2022-08-04T11:45:01.957Z,2.85
2022-08-04T11:47:41.691Z,5.85
2022-08-04T11:50:40.987Z,2.45
2022-08-04T11:53:19.507Z,4.38
2022-08-04T11:56:07.135Z,3.05
2022-08-04T11:58:50.121Z,6.25
2022-08-04T12:01:32.471Z,2.60
2022-08-04T12:04:50.398Z,3.78
2022-08-04T12:07:54.611Z,2.60
2022-08-04T12:10:48.653Z,7.30
2022-08-04T12:13:49.410Z,2.75
2022-08-04T12:16:30.370Z,7.87
2022-08-04T12:19:17.253Z,2.30
2022-08-04T12:21:57.412Z,2.45
2022-08-04T12:24:38.659Z,2.70
2022-08-04T12:27:19.527Z,9.30
2022-08-04T12:30:59.445Z,2.05
2022-08-04T12:33:10.197Z,3.75
2022-08-04T12:36:11.853Z,3.75
2022-08-04T12:39:04.274Z,4.95
2022-08-04T12:41:45.419Z,4.20
2022-08-04T12:44:33.347Z,4.13
2022-08-04T12:47:28.274Z,7.32
2022-08-04T12:50:19.777Z,7.88
2022-08-04T12:53:02.746Z,6.82
2022-08-04T12:56:01.729Z,6.88
2022-08-04T12:58:47.303Z,5.47
2022-08-04T13:02:07.221Z,4.63
2022-08-04T13:04:29.297Z,3.17
2022-08-04T13:07:22.244Z,2.70
2022-08-04T13:10:18.309Z,5.47
2022-08-04T13:13:06.990Z,2.28
2022-08-04T13:15:56.164Z,4.18
2022-08-04T13:18:30.459Z,4.28
2022-08-04T13:21:49.956Z,6.10
2022-08-04T13:24:31.126Z,4.55
2022-08-04T13:27:10.871Z,2.65
2022-08-04T13:30:00.714Z,3.15
2022-08-04T13:32:41.091Z,4.15
2022-08-04T13:35:13.335Z,2.67
2022-08-04T13:38:04.159Z,3.03
2022-08-04T13:40:40.100Z,5.78
2022-08-04T13:43:51.595Z,2.85
2022-08-04T13:46:33.858Z,2.35
2022-08-04T13:49:48.446Z,3.85
2022-08-04T13:52:15.454Z,2.20
2022-08-04T13:54:53.539Z,2.47
2022-08-04T13:57:47.666Z,6.55
2022-08-04T14:00:30.253Z,2.55
2022-08-04T14:03:23.722Z,5.13
2022-08-04T14:06:18.835Z,5.05
2022-08-04T14:09:02.059Z,6.28
2022-08-04T14:14:39.429Z,2.87
2022-08-04T14:17:20.647Z,2.40
2022-08-04T14:20:01.913Z,4.18
2022-08-04T14:22:34.809Z,2.40
2022-08-04T14:25:16.718Z,4.35
2022-08-04T14:28:05.893Z,10.38
2022-08-04T14:30:44.034Z,6.38
2022-08-04T14:34:03.094Z,2.97
2022-08-04T14:36:04.627Z,3.65
2022-08-04T14:38:53.945Z,2.95
2022-08-04T14:41:33.451Z,3.72
2022-08-04T14:44:11.993Z,2.72
2022-08-04T14:47:03.465Z,4.50
2022-08-04T14:49:35.811Z,3.55
2022-08-04T14:52:13.490Z,3.42
2022-08-04T14:54:52.583Z,2.65
2022-08-04T14:57:33.237Z,5.30
2022-08-04T15:00:32.450Z,2.42
2022-08-04T15:03:08.806Z,4.93
2022-08-04T15:06:05.188Z,4.45
2022-08-04T15:08:38.377Z,2.53
2022-08-04T15:11:13.692Z,3.42
2022-08-04T15:14:08.697Z,1.67
2022-08-04T15:17:12.135Z,2.67
2022-08-04T15:20:11.554Z,4.65
2022-08-04T15:22:54.038Z,7.78
2022-08-04T15:25:39.952Z,2.85
2022-08-04T15:28:26.600Z,2.97
2022-08-04T15:31:10.313Z,3.08
2022-08-04T15:34:15.428Z,3.88
2022-08-04T15:36:58.221Z,3.10
2022-08-04T15:39:52.611Z,4.13
2022-08-04T15:42:59.535Z,5.10
2022-08-04T15:46:37.102Z,9.00
2022-08-04T15:48:56.099Z,3.28
2022-08-04T15:51:42.072Z,4.20
2022-08-04T15:54:27.701Z,3.40
2022-08-04T15:57:09.475Z,3.08
2022-08-04T16:00:22.281Z,1.70
2022-08-04T16:02:56.762Z,6.65
2022-08-04T16:05:43.432Z,7.05
2022-08-04T16:08:26.456Z,4.13
2022-08-04T16:11:08.475Z,4.40
2022-08-04T16:14:07.739Z,12.05
2022-08-04T16:16:45.214Z,5.80
2022-08-04T16:19:35.089Z,7.32
2022-08-04T16:22:38.532Z,4.18
2022-08-04T16:25:12.456Z,14.82
2022-08-04T16:27:44.414Z,10.60
2022-08-04T16:30:18.340Z,6.13
2022-08-04T16:32:51.430Z,7.03
2022-08-04T16:35:27.504Z,4.03
2022-08-04T16:38:15.680Z,4.18
2022-08-04T16:41:02.299Z,4.63
2022-08-04T16:43:51.402Z,3.42
2022-08-04T16:47:08.623Z,2.35
2022-08-04T16:49:36.558Z,3.70
2022-08-04T16:52:33.852Z,4.28
2022-08-04T16:55:09.572Z,5.38
2022-08-04T16:57:45.395Z,7.10
2022-08-04T17:02:53.635Z,21.13
2022-08-04T17:05:39.029Z,20.85
2022-08-04T17:08:29.737Z,10.73
2022-08-04T17:11:03.246Z,54.42
2022-08-04T17:14:02.201Z,34.97
2022-08-04T17:16:58.437Z,19.55
2022-08-04T17:19:36.596Z,6.95
2022-08-04T17:22:10.675Z,5.90
2022-08-04T17:24:48.235Z,7.88
2022-08-04T17:28:19.054Z,3.67
2022-08-04T17:30:35.656Z,7.97
2022-08-04T17:33:06.459Z,3.97
2022-08-04T17:35:54.761Z,8.68
2022-08-04T17:38:39.507Z,10.15
2022-08-04T17:41:19.083Z,10.27
2022-08-04T17:44:12.079Z,6.53
2022-08-04T17:46:48.132Z,7.78
2022-08-04T17:49:24.348Z,8.40
2022-08-04T17:52:02.626Z,5.78
2022-08-04T17:54:44.321Z,5.32
2022-08-04T17:57:21.556Z,7.53
2022-08-04T18:00:01.307Z,5.07
2022-08-04T18:02:54.505Z,10.90
2022-08-04T18:06:01.812Z,4.35
2022-08-04T18:08:39.661Z,5.05
2022-08-04T18:11:29.663Z,7.75
2022-08-04T18:14:25.995Z,5.97
2022-08-04T18:17:04.237Z,10.85
2022-08-04T18:19:55.585Z,14.80
2022-08-04T18:22:34.233Z,8.95
2022-08-04T18:25:18.530Z,4.97
2022-08-04T18:27:58.586Z,7.63
2022-08-04T18:30:55.621Z,9.25
2022-08-04T18:33:39.865Z,4.85
2022-08-04T18:36:32.978Z,10.82
2022-08-04T18:39:16.216Z,4.10
2022-08-04T18:42:02.466Z,5.03
2022-08-04T18:44:53.229Z,3.20
2022-08-04T18:47:58.669Z,3.50
2022-08-04T18:51:09.512Z,2.97
2022-08-04T18:53:35.736Z,11.40
2022-08-04T18:56:19.912Z,5.70
2022-08-04T18:59:10.166Z,3.83
2022-08-04T19:02:12.279Z,6.72
2022-08-04T19:04:53.539Z,6.22
2022-08-04T19:08:02.634Z,3.25
2022-08-04T19:10:34.865Z,5.63
2022-08-04T19:13:24.837Z,3.80
2022-08-04T19:15:59.117Z,16.08
2022-08-04T19:18:48.576Z,5.88
2022-08-04T19:21:58.654Z,4.72
2022-08-04T19:24:32.094Z,6.70
2022-08-04T19:27:07.417Z,3.70
2022-08-04T19:29:50.384Z,4.15
2022-08-04T19:32:26.498Z,6.35
2022-08-04T19:35:02.554Z,4.85
2022-08-04T19:37:58.203Z,5.55
2022-08-04T19:40:36.997Z,9.25
2022-08-04T19:43:16.002Z,11.88
2022-08-04T19:45:56.717Z,9.20
2022-08-04T19:48:35.974Z,9.70
2022-08-04T19:51:15.352Z,6.22
2022-08-04T19:54:08.073Z,5.43
2022-08-04T19:57:03.970Z,8.77
2022-08-04T19:59:36.618Z,4.78
2022-08-04T20:02:20.121Z,5.00
2022-08-04T20:05:04.735Z,5.45
2022-08-04T20:07:52.405Z,6.80
2022-08-04T20:10:23.718Z,8.60
2022-08-04T20:13:10.623Z,6.18
2022-08-04T20:15:57.415Z,6.38
2022-08-04T20:18:55.596Z,7.00
2022-08-04T20:21:54.067Z,7.03
2022-08-04T20:28:00.501Z,5.93
2022-08-04T20:30:34.465Z,6.60
2022-08-04T20:33:23.446Z,7.45
2022-08-04T20:36:11.654Z,8.00
2022-08-04T20:38:52.002Z,8.87
2022-08-04T20:41:36.706Z,6.60
2022-08-04T20:44:18.730Z,5.13
2022-08-04T20:46:55.429Z,5.32
2022-08-04T20:49:36.486Z,6.35
2022-08-04T20:52:20.577Z,6.38
2022-08-04T20:55:00.003Z,5.72
2022-08-04T20:57:47.922Z,6.22
2022-08-04T21:00:30.316Z,4.32
2022-08-04T21:03:11.473Z,6.38
2022-08-04T21:05:57.652Z,7.32
2022-08-04T21:08:30.834Z,5.50
2022-08-04T21:11:17.770Z,4.85
2022-08-04T21:13:52.792Z,6.40
2022-08-04T21:16:55.744Z,6.40
2022-08-04T21:19:32.433Z,6.30
2022-08-04T21:22:14.266Z,4.53
2022-08-04T21:25:06.446Z,9.57
2022-08-04T21:27:39.450Z,5.38
2022-08-04T21:30:23.837Z,4.57
2022-08-04T21:33:06.495Z,4.00
2022-08-04T21:35:54.339Z,4.43
2022-08-04T21:38:28.380Z,4.55
2022-08-04T21:41:03.668Z,3.92
2022-08-04T21:43:42.643Z,4.15
2022-08-04T21:46:24.154Z,3.75
2022-08-04T21:49:03.256Z,5.55
2022-08-04T21:52:00.282Z,7.13
2022-08-04T21:54:39.508Z,4.05
2022-08-04T21:57:17.077Z,6.93
2022-08-04T22:00:00.963Z,8.32
2022-08-04T22:02:43.242Z,4.28
2022-08-04T22:05:32.674Z,7.65
2022-08-04T22:08:19.547Z,5.10
2022-08-04T22:11:01.130Z,6.20
2022-08-04T22:13:52.406Z,3.53
2022-08-04T22:16:30.020Z,4.32
2022-08-04T22:19:13.655Z,5.40
2022-08-04T22:21:56.616Z,6.03
2022-08-04T22:24:39.539Z,3.80
2022-08-04T22:27:36.157Z,6.45
2022-08-04T22:30:18.495Z,6.00
2022-08-04T22:32:56.530Z,5.22
2022-08-04T22:35:43.755Z,4.57
2022-08-04T22:38:27.893Z,6.75
2022-08-04T22:41:17.275Z,6.22
2022-08-04T22:44:00.993Z,5.28
2022-08-04T22:46:45.463Z,5.25
2022-08-04T22:49:31.932Z,7.57
2022-08-04T22:52:26.208Z,4.18
2022-08-04T22:55:11.456Z,4.57
2022-08-04T22:58:04.992Z,6.00
2022-08-04T23:00:53.055Z,3.72
2022-08-04T23:03:37.269Z,6.50
2022-08-04T23:06:24.430Z,7.80
2022-08-04T23:09:06.404Z,10.55
2022-08-04T23:12:08.602Z,4.43
2022-08-04T23:14:56.893Z,4.50
2022-08-04T23:17:43.841Z,3.85
2022-08-04T23:20:32.930Z,9.02
2022-08-04T23:23:14.857Z,6.57
2022-08-04T23:26:11.044Z,4.10
2022-08-04T23:28:56.872Z,8.77
2022-08-04T23:31:41.009Z,4.85
2022-08-04T23:34:29.134Z,7.18
2022-08-04T23:37:08.655Z,4.53
2022-08-04T23:40:15.438Z,4.43
2022-08-04T23:42:45.214Z,10.63
2022-08-04T23:45:24.532Z,5.75
2022-08-04T23:48:20.887Z,5.97
2022-08-04T23:51:04.559Z,4.95
2022-08-04T23:54:03.674Z,5.15
2022-08-04T23:56:40.429Z,4.63
2022-08-04T23:59:49.159Z,6.20
